createdAt,value
2017-12-08T00:00:25.318Z,3.65
2017-12-08T00:02:59.603Z,3.60
2017-12-08T00:05:33.995Z,3.83
2017-12-08T00:08:08.578Z,5.45
2017-12-08T00:10:42.976Z,3.10
2017-12-08T00:13:17.471Z,5.97
2017-12-08T00:15:51.832Z,3.20
2017-12-08T00:18:26.877Z,5.90
2017-12-08T00:21:01.419Z,1.75
2017-12-08T00:23:36.635Z,3.53
2017-12-08T00:26:11.074Z,4.37
2017-12-08T00:28:45.575Z,3.12
2017-12-08T00:31:20.319Z,2.75
2017-12-08T00:33:54.823Z,3.25
2017-12-08T00:36:29.163Z,4.07
2017-12-08T00:39:04.479Z,3.78
2017-12-08T00:41:38.932Z,4.75
2017-12-08T00:44:13.224Z,3.05
2017-12-08T00:46:47.590Z,3.03
2017-12-08T00:49:21.971Z,2.45
2017-12-08T00:51:57.516Z,1.92
2017-12-08T00:54:31.979Z,2.35
2017-12-08T00:57:07.140Z,1.80
2017-12-08T00:59:41.462Z,2.75
2017-12-08T01:02:15.793Z,3.47
2017-12-08T01:04:50.114Z,2.35
2017-12-08T01:07:24.445Z,3.33
2017-12-08T01:09:58.770Z,3.90
2017-12-08T01:12:33.201Z,2.30
2017-12-08T01:15:07.494Z,3.05
2017-12-08T01:17:42.699Z,2.50
2017-12-08T01:20:17.010Z,2.85
2017-12-08T01:22:52.279Z,3.35
2017-12-08T01:25:26.692Z,3.35
2017-12-08T01:28:01.915Z,3.40
2017-12-08T01:30:36.226Z,2.10
2017-12-08T01:33:10.680Z,3.75
2017-12-08T01:35:45.016Z,3.10
2017-12-08T01:38:20.203Z,2.58
2017-12-08T01:40:54.746Z,2.85
2017-12-08T01:43:29.049Z,1.83
2017-12-08T01:46:03.607Z,4.12
2017-12-08T01:48:38.104Z,4.75
2017-12-08T01:51:12.517Z,3.33
2017-12-08T01:53:46.858Z,2.83
2017-12-08T01:56:21.340Z,2.20
2017-12-08T01:58:55.775Z,3.80
2017-12-08T02:01:30.239Z,2.67
2017-12-08T02:04:04.630Z,2.28
2017-12-08T02:06:39.122Z,3.15
2017-12-08T02:09:13.558Z,2.83
2017-12-08T02:11:47.837Z,3.85
2017-12-08T02:14:22.129Z,3.70
2017-12-08T02:16:56.583Z,3.17
2017-12-08T02:19:30.990Z,3.75
2017-12-08T02:22:05.467Z,4.45
2017-12-08T02:24:39.757Z,4.78
2017-12-08T02:27:14.205Z,2.92
2017-12-08T02:29:48.525Z,3.05
2017-12-08T02:32:23.018Z,4.03
2017-12-08T02:34:57.459Z,3.50
2017-12-08T02:37:31.944Z,3.28
2017-12-08T02:40:06.468Z,2.72
2017-12-08T02:42:40.960Z,4.43
2017-12-08T02:45:15.441Z,2.75
2017-12-08T02:47:49.723Z,3.67
2017-12-08T02:50:24.194Z,3.67
2017-12-08T02:52:58.636Z,5.95
2017-12-08T02:55:33.803Z,3.78
2017-12-08T02:58:08.876Z,2.87
2017-12-08T03:00:43.242Z,3.45
2017-12-08T03:03:17.670Z,2.50
2017-12-08T03:05:52.140Z,2.97
2017-12-08T03:08:26.429Z,1.67
2017-12-08T03:11:00.772Z,1.52
2017-12-08T03:13:35.188Z,1.70
2017-12-08T03:16:09.594Z,2.33
2017-12-08T03:18:44.015Z,1.52
2017-12-08T03:21:18.430Z,2.62
2017-12-08T03:23:53.510Z,2.87
2017-12-08T03:26:28.736Z,2.67
2017-12-08T03:29:03.321Z,3.90
2017-12-08T03:31:37.673Z,2.45
2017-12-08T03:34:12.127Z,2.45
2017-12-08T03:36:46.565Z,3.28
2017-12-08T03:39:20.876Z,5.47
2017-12-08T03:41:55.299Z,1.98
2017-12-08T03:44:29.570Z,1.50
2017-12-08T03:47:03.918Z,1.87
2017-12-08T03:49:38.218Z,3.20
2017-12-08T03:52:12.690Z,3.17
2017-12-08T03:54:47.123Z,2.28
2017-12-08T03:57:21.551Z,1.20
2017-12-08T03:59:56.247Z,1.12
2017-12-08T04:02:30.558Z,1.67
2017-12-08T04:05:04.910Z,1.05
2017-12-08T04:07:39.354Z,2.08
2017-12-08T04:10:14.616Z,1.58
2017-12-08T04:12:49.050Z,1.87
2017-12-08T04:15:23.354Z,2.53
2017-12-08T04:17:57.778Z,1.02
2017-12-08T04:20:32.330Z,3.03
2017-12-08T04:23:06.755Z,0.95
2017-12-08T04:25:41.307Z,2.08
2017-12-08T04:28:15.732Z,2.22
2017-12-08T04:30:50.957Z,2.45
2017-12-08T04:33:25.455Z,2.47
2017-12-08T04:35:59.846Z,2.33
2017-12-08T04:38:34.182Z,2.20
2017-12-08T04:41:08.625Z,2.75
2017-12-08T04:43:43.161Z,1.50
2017-12-08T04:46:17.561Z,2.65
2017-12-08T04:48:51.936Z,2.55
2017-12-08T04:51:26.375Z,2.00
2017-12-08T04:54:00.702Z,1.62
2017-12-08T04:56:35.221Z,2.50
2017-12-08T04:59:09.732Z,3.05
2017-12-08T05:01:44.185Z,2.67
2017-12-08T05:04:18.606Z,1.77
2017-12-08T05:06:53.012Z,2.22
2017-12-08T05:09:27.402Z,2.60
2017-12-08T05:12:01.856Z,3.58
2017-12-08T05:14:36.395Z,2.10
2017-12-08T05:17:10.875Z,2.33
2017-12-08T05:19:45.356Z,1.62
2017-12-08T05:22:20.561Z,2.83
2017-12-08T05:24:55.803Z,1.02
2017-12-08T05:27:30.253Z,1.90
2017-12-08T05:30:05.343Z,1.60
2017-12-08T05:32:39.880Z,1.65
2017-12-08T05:35:14.498Z,1.45
2017-12-08T05:37:48.821Z,2.22
2017-12-08T05:40:23.219Z,0.90
2017-12-08T05:42:57.660Z,1.35
2017-12-08T05:45:32.874Z,0.93
2017-12-08T05:48:07.267Z,0.52
2017-12-08T05:50:41.785Z,1.45
2017-12-08T05:53:16.301Z,1.75
2017-12-08T05:55:50.757Z,1.15
2017-12-08T05:58:25.232Z,1.52
2017-12-08T06:00:59.676Z,0.85
2017-12-08T06:03:34.925Z,1.00
2017-12-08T06:06:09.478Z,0.40
2017-12-08T06:08:43.963Z,0.60
2017-12-08T06:11:18.459Z,0.75
2017-12-08T06:13:52.932Z,0.80
2017-12-08T06:16:27.394Z,0.98
2017-12-08T06:19:01.870Z,0.60
2017-12-08T06:21:36.430Z,0.60
2017-12-08T06:24:10.940Z,0.60
2017-12-08T06:26:45.378Z,1.23
2017-12-08T06:29:19.940Z,1.00
2017-12-08T06:31:54.394Z,1.05
2017-12-08T06:34:28.894Z,0.95
2017-12-08T06:37:04.151Z,0.88
2017-12-08T06:39:38.451Z,0.68
2017-12-08T06:42:12.894Z,0.80
2017-12-08T06:44:48.616Z,0.82
2017-12-08T06:47:23.111Z,0.60
2017-12-08T06:49:57.575Z,1.12
2017-12-08T06:52:31.900Z,1.60
2017-12-08T06:55:06.325Z,0.90
2017-12-08T06:57:40.866Z,1.05
2017-12-08T07:00:15.335Z,0.95
2017-12-08T07:02:49.732Z,0.45
2017-12-08T07:05:24.197Z,1.10
2017-12-08T07:07:58.707Z,0.45
2017-12-08T07:10:33.222Z,0.60
2017-12-08T07:13:07.754Z,1.10
2017-12-08T07:15:42.257Z,1.05
2017-12-08T07:18:16.683Z,1.33
2017-12-08T07:20:50.971Z,1.35
2017-12-08T07:23:25.447Z,1.20
2017-12-08T07:25:59.731Z,1.05
2017-12-08T07:28:34.924Z,1.08
2017-12-08T07:31:10.121Z,0.40
2017-12-08T07:33:44.590Z,1.10
2017-12-08T07:36:18.929Z,1.42
2017-12-08T07:38:54.113Z,1.60
2017-12-08T07:41:28.609Z,0.90
2017-12-08T07:44:02.996Z,0.95
2017-12-08T07:46:38.202Z,1.08
2017-12-08T07:49:12.967Z,1.00
2017-12-08T07:51:48.231Z,0.80
2017-12-08T07:54:23.142Z,0.80
2017-12-08T07:56:57.526Z,1.60
2017-12-08T07:59:31.912Z,1.00
2017-12-08T08:02:06.225Z,1.35
2017-12-08T08:04:40.543Z,0.60
2017-12-08T08:07:15.034Z,1.00
2017-12-08T08:09:49.391Z,0.77
2017-12-08T08:12:25.350Z,0.85
2017-12-08T08:14:59.907Z,0.95
2017-12-08T08:17:34.247Z,0.70
2017-12-08T08:20:08.729Z,1.20
2017-12-08T08:22:43.147Z,1.83
2017-12-08T08:25:17.598Z,0.77
2017-12-08T08:27:52.048Z,0.82
2017-12-08T08:30:26.352Z,1.98
2017-12-08T08:33:00.763Z,0.60
2017-12-08T08:35:35.229Z,0.90
2017-12-08T08:38:09.740Z,0.85
2017-12-08T08:40:44.195Z,1.10
2017-12-08T08:43:18.479Z,0.70
2017-12-08T08:45:52.795Z,1.20
2017-12-08T08:48:27.082Z,0.70
2017-12-08T08:51:01.496Z,1.05
2017-12-08T08:53:35.910Z,1.02
2017-12-08T08:56:10.374Z,1.20
2017-12-08T08:58:44.673Z,1.10
2017-12-08T09:01:19.471Z,0.70
2017-12-08T09:03:53.780Z,0.80
2017-12-08T09:06:28.198Z,1.27
2017-12-08T09:09:02.671Z,0.80
2017-12-08T09:11:37.048Z,0.82
2017-12-08T09:14:11.460Z,0.80
2017-12-08T09:16:46.083Z,0.62
2017-12-08T09:19:20.381Z,1.42
2017-12-08T09:21:54.844Z,1.02
2017-12-08T09:24:29.375Z,1.10
2017-12-08T09:27:03.780Z,1.42
2017-12-08T09:29:38.207Z,2.55
2017-12-08T09:32:12.708Z,0.80
2017-12-08T09:34:47.157Z,1.90
2017-12-08T09:37:21.641Z,1.00
2017-12-08T09:39:56.984Z,0.62
2017-12-08T09:42:31.450Z,1.40
2017-12-08T09:45:05.951Z,0.90
2017-12-08T09:47:40.392Z,0.60
2017-12-08T09:50:14.963Z,1.25
2017-12-08T09:52:49.503Z,1.10
2017-12-08T09:55:24.254Z,1.02
2017-12-08T09:57:58.580Z,1.15
2017-12-08T10:00:33.278Z,1.10
2017-12-08T10:03:07.768Z,1.02
2017-12-08T10:05:42.235Z,0.93
2017-12-08T10:08:16.697Z,1.30
2017-12-08T10:10:51.190Z,1.08
2017-12-08T10:13:25.674Z,0.57
2017-12-08T10:16:00.098Z,0.70
2017-12-08T10:18:34.583Z,1.58
2017-12-08T10:21:08.961Z,0.50
2017-12-08T10:23:43.354Z,0.77
2017-12-08T10:26:17.806Z,0.60
2017-12-08T10:28:52.178Z,1.85
2017-12-08T10:31:26.461Z,1.80
2017-12-08T10:34:00.891Z,1.30
2017-12-08T10:36:35.359Z,1.73
2017-12-08T10:39:09.679Z,1.48
2017-12-08T10:41:44.932Z,1.35
2017-12-08T10:44:20.271Z,1.20
2017-12-08T10:46:54.793Z,1.17
2017-12-08T10:49:29.243Z,1.58
2017-12-08T10:52:04.503Z,1.15
2017-12-08T10:54:38.999Z,0.57
2017-12-08T10:57:13.321Z,0.98
2017-12-08T10:59:47.763Z,0.90
2017-12-08T11:02:22.944Z,0.70
2017-12-08T11:04:57.327Z,1.10
2017-12-08T11:07:31.757Z,2.05
2017-12-08T11:10:06.259Z,0.82
2017-12-08T11:12:40.582Z,0.95
2017-12-08T11:15:14.914Z,0.90
2017-12-08T11:17:50.178Z,2.05
2017-12-08T11:20:25.317Z,1.05
2017-12-08T11:22:59.908Z,1.80
2017-12-08T11:25:34.174Z,0.80
2017-12-08T11:28:08.511Z,1.75
2017-12-08T11:30:43.060Z,1.30
2017-12-08T11:33:19.255Z,0.90
2017-12-08T11:35:53.688Z,0.75
2017-12-08T11:38:28.054Z,1.10
2017-12-08T11:41:03.148Z,1.50
2017-12-08T11:43:37.477Z,0.77
2017-12-08T11:46:11.908Z,0.93
2017-12-08T11:48:46.208Z,1.23
2017-12-08T11:51:21.434Z,1.15
2017-12-08T11:53:55.869Z,1.90
2017-12-08T11:56:30.260Z,1.30
2017-12-08T11:59:05.389Z,0.60
2017-12-08T12:01:39.747Z,1.15
2017-12-08T12:04:14.185Z,1.58
2017-12-08T12:06:48.484Z,1.80
2017-12-08T12:09:22.975Z,1.08
2017-12-08T12:11:58.187Z,1.80
2017-12-08T12:14:32.727Z,0.80
2017-12-08T12:17:07.334Z,0.88
2017-12-08T12:19:41.776Z,0.80
2017-12-08T12:22:16.232Z,1.67
2017-12-08T12:24:50.520Z,1.37
2017-12-08T12:27:25.852Z,0.85
2017-12-08T12:30:00.239Z,1.05
2017-12-08T12:32:34.647Z,0.90
2017-12-08T12:35:09.019Z,1.50
2017-12-08T12:37:43.508Z,1.58
2017-12-08T12:40:19.007Z,1.62
2017-12-08T12:42:53.368Z,0.93
2017-12-08T12:45:27.833Z,0.95
2017-12-08T12:48:02.259Z,2.40
2017-12-08T12:50:37.560Z,2.55
2017-12-08T12:53:11.895Z,2.15
2017-12-08T12:55:46.403Z,1.70
2017-12-08T12:58:20.935Z,1.35
2017-12-08T13:00:55.443Z,2.03
2017-12-08T13:03:29.939Z,2.12
2017-12-08T13:06:04.251Z,1.40
2017-12-08T13:08:38.794Z,1.30
2017-12-08T13:11:13.293Z,1.60
2017-12-08T13:13:47.582Z,2.10
2017-12-08T13:16:22.803Z,1.50
2017-12-08T13:18:57.319Z,1.35
2017-12-08T13:21:32.308Z,2.03
2017-12-08T13:24:06.829Z,1.60
2017-12-08T13:26:41.207Z,1.55
2017-12-08T13:29:15.709Z,1.20
2017-12-08T13:31:50.246Z,1.00
2017-12-08T13:34:24.573Z,1.30
2017-12-08T13:36:58.996Z,0.80
2017-12-08T13:39:33.449Z,1.40
2017-12-08T13:42:08.702Z,0.60
2017-12-08T13:44:43.060Z,1.40
2017-12-08T13:47:17.515Z,1.42
2017-12-08T13:49:51.834Z,2.25
2017-12-08T13:52:26.189Z,1.92
2017-12-08T13:55:12.397Z,2.00
2017-12-08T13:57:47.528Z,2.10
2017-12-08T14:00:22.015Z,1.95
2017-12-08T14:02:56.369Z,1.40
2017-12-08T14:05:31.650Z,2.30
2017-12-08T14:08:06.261Z,3.08
2017-12-08T14:10:40.655Z,2.87
2017-12-08T14:13:15.004Z,1.87
2017-12-08T14:15:49.591Z,2.00
2017-12-08T14:18:24.127Z,3.58
2017-12-08T14:20:59.365Z,3.80
2017-12-08T14:23:33.721Z,2.80
2017-12-08T14:26:09.711Z,2.78
2017-12-08T14:28:44.219Z,4.12
2017-12-08T14:31:18.748Z,4.55
2017-12-08T14:33:53.223Z,3.72
2017-12-08T14:36:27.531Z,4.75
2017-12-08T14:39:03.020Z,2.95
2017-12-08T14:41:37.361Z,3.87
2017-12-08T14:44:11.776Z,5.10
2017-12-08T14:46:46.313Z,2.25
2017-12-08T14:49:20.893Z,1.87
2017-12-08T14:51:55.967Z,2.67
2017-12-08T14:54:30.384Z,3.28
2017-12-08T14:57:04.899Z,2.17
2017-12-08T14:59:40.174Z,1.90
2017-12-08T15:02:15.310Z,2.75
2017-12-08T15:04:49.756Z,1.70
2017-12-08T15:07:24.088Z,2.47
2017-12-08T15:09:58.622Z,5.40
2017-12-08T15:12:32.917Z,3.83
2017-12-08T15:15:07.297Z,4.05
2017-12-08T15:17:41.714Z,2.72
2017-12-08T15:20:16.052Z,2.28
2017-12-08T15:22:50.538Z,1.80
2017-12-08T15:25:24.954Z,1.50
2017-12-08T15:27:59.469Z,1.05
2017-12-08T15:30:34.743Z,1.62
2017-12-08T15:33:09.130Z,4.30
2017-12-08T15:35:43.687Z,4.05
2017-12-08T15:38:18.146Z,2.70
2017-12-08T15:40:52.711Z,1.75
2017-12-08T15:43:27.206Z,2.42
2017-12-08T15:46:01.754Z,2.50
2017-12-08T15:48:36.787Z,2.22
2017-12-08T15:51:11.929Z,2.75
2017-12-08T15:53:46.450Z,4.12
2017-12-08T15:56:20.885Z,0.70
2017-12-08T15:58:55.426Z,1.95
2017-12-08T16:01:29.908Z,2.55
2017-12-08T16:04:04.642Z,2.90
2017-12-08T16:06:39.127Z,3.35
2017-12-08T16:09:13.593Z,3.97
2017-12-08T16:11:48.818Z,3.58
2017-12-08T16:14:23.268Z,3.05
2017-12-08T16:16:58.355Z,3.53
2017-12-08T16:19:33.491Z,4.40
2017-12-08T16:22:07.960Z,3.70
2017-12-08T16:24:42.331Z,0.80
2017-12-08T16:27:16.832Z,5.57
2017-12-08T16:29:51.706Z,3.85
2017-12-08T16:32:26.228Z,3.05
2017-12-08T16:35:00.821Z,3.33
2017-12-08T16:37:35.321Z,2.42
2017-12-08T16:40:10.598Z,3.37
2017-12-08T16:42:45.950Z,2.22
2017-12-08T16:45:20.408Z,4.22
2017-12-08T16:47:54.803Z,1.50
2017-12-08T16:50:33.715Z,2.75
2017-12-08T16:53:08.984Z,1.55
2017-12-08T16:55:44.084Z,1.62
2017-12-08T16:58:18.549Z,2.15
2017-12-08T17:00:53.050Z,1.83
2017-12-08T17:03:27.686Z,0.93
2017-12-08T17:06:02.035Z,1.10
2017-12-08T17:08:36.504Z,1.52
2017-12-08T17:11:11.739Z,3.30
2017-12-08T17:13:46.087Z,1.12
2017-12-08T17:16:20.582Z,2.05
2017-12-08T17:18:54.961Z,2.80
2017-12-08T17:21:30.222Z,3.95
2017-12-08T17:24:05.068Z,2.08
2017-12-08T17:26:39.767Z,2.85
2017-12-08T17:29:14.256Z,3.35
2017-12-08T17:31:48.788Z,6.78
2017-12-08T17:34:23.232Z,2.78
2017-12-08T17:36:57.798Z,2.20
2017-12-08T17:39:32.439Z,3.60
2017-12-08T17:42:06.978Z,3.05
2017-12-08T17:44:42.975Z,2.62
2017-12-08T17:47:18.166Z,5.05
2017-12-08T17:49:52.599Z,2.60
2017-12-08T17:52:27.901Z,2.10
2017-12-08T17:55:02.296Z,4.60
2017-12-08T17:57:38.411Z,3.22
2017-12-08T18:00:12.883Z,2.72
2017-12-08T18:02:47.492Z,4.62
2017-12-08T18:05:22.097Z,2.30
2017-12-08T18:07:56.530Z,5.30
2017-12-08T18:10:31.730Z,4.95
2017-12-08T18:13:06.208Z,3.72
2017-12-08T18:15:40.754Z,3.58
2017-12-08T18:18:15.091Z,5.35
2017-12-08T18:20:49.480Z,1.80
2017-12-08T18:23:24.698Z,3.53
2017-12-08T18:25:59.171Z,2.40
2017-12-08T18:28:33.658Z,5.15
2017-12-08T18:31:08.144Z,7.07
2017-12-08T18:33:42.675Z,4.22
2017-12-08T18:36:17.248Z,3.03
2017-12-08T18:38:51.823Z,4.97
2017-12-08T18:41:26.287Z,5.57
2017-12-08T18:44:01.559Z,5.75
2017-12-08T18:46:35.983Z,3.78
2017-12-08T18:49:12.089Z,4.97
2017-12-08T18:51:47.424Z,2.30
2017-12-08T18:54:21.734Z,7.20
2017-12-08T18:56:56.172Z,10.60
2017-12-08T18:59:31.390Z,4.28
2017-12-08T19:02:05.938Z,4.32
2017-12-08T19:04:40.437Z,2.83
2017-12-08T19:07:14.952Z,2.80
2017-12-08T19:09:49.376Z,4.90
2017-12-08T19:12:23.784Z,11.30
2017-12-08T19:14:58.194Z,7.10
2017-12-08T19:17:32.725Z,7.28
2017-12-08T19:20:08.988Z,6.37
2017-12-08T19:22:44.542Z,6.90
2017-12-08T19:25:19.033Z,3.92
2017-12-08T19:27:53.517Z,3.78
2017-12-08T19:30:33.226Z,3.37
2017-12-08T19:33:08.722Z,6.95
2017-12-08T19:35:43.267Z,5.68
2017-12-08T19:38:17.684Z,2.67
2017-12-08T19:40:52.086Z,3.92
2017-12-08T19:43:27.237Z,2.95
2017-12-08T19:46:01.867Z,5.90
2017-12-08T19:48:37.256Z,7.65
2017-12-08T19:51:12.826Z,5.10
2017-12-08T19:53:47.246Z,3.65
2017-12-08T19:56:21.589Z,2.97
2017-12-08T19:58:56.103Z,1.50
2017-12-08T20:01:30.748Z,3.87
2017-12-08T20:04:05.068Z,7.62
2017-12-08T20:06:39.725Z,6.53
2017-12-08T20:09:16.683Z,3.12
2017-12-08T20:11:51.943Z,1.58
2017-12-08T20:14:27.379Z,2.10
2017-12-08T20:17:02.298Z,2.25
2017-12-08T20:19:36.726Z,2.05
2017-12-08T20:22:11.258Z,2.05
2017-12-08T20:24:46.730Z,3.17
2017-12-08T20:27:21.135Z,2.65
2017-12-08T20:29:55.709Z,2.08
2017-12-08T20:32:30.840Z,2.67
2017-12-08T20:35:05.311Z,1.95
2017-12-08T20:37:39.759Z,2.28
2017-12-08T20:40:14.287Z,2.10
2017-12-08T20:42:49.117Z,2.37
2017-12-08T20:45:23.558Z,1.80
2017-12-08T20:47:58.507Z,2.50
2017-12-08T20:50:33.334Z,1.02
2017-12-08T20:53:07.908Z,3.05
2017-12-08T20:55:42.289Z,1.33
2017-12-08T20:58:16.818Z,1.95
2017-12-08T21:00:51.157Z,2.15
2017-12-08T21:03:25.609Z,0.90
2017-12-08T21:05:59.932Z,0.70
2017-12-08T21:08:34.963Z,1.48
2017-12-08T21:11:09.407Z,1.65
2017-12-08T21:13:43.827Z,1.10
2017-12-08T21:16:18.221Z,1.00
2017-12-08T21:18:52.619Z,2.05
2017-12-08T21:21:27.854Z,0.73
2017-12-08T21:24:02.357Z,1.35
2017-12-08T21:26:37.068Z,1.62
2017-12-08T21:29:11.566Z,2.53
2017-12-08T21:31:45.971Z,2.00
2017-12-08T21:34:20.517Z,1.77
2017-12-08T21:36:55.030Z,1.85
2017-12-08T21:39:29.552Z,0.93
2017-12-08T21:42:03.907Z,3.17
2017-12-08T21:44:38.264Z,1.73
2017-12-08T21:47:12.618Z,2.05
2017-12-08T21:49:48.308Z,1.35
2017-12-08T21:52:22.858Z,3.00
2017-12-08T21:54:57.419Z,2.78
2017-12-08T21:57:31.942Z,2.20
2017-12-08T22:00:06.381Z,3.00
2017-12-08T22:02:40.713Z,2.97
2017-12-08T22:05:15.198Z,1.37
2017-12-08T22:07:49.717Z,3.62
2017-12-08T22:10:24.071Z,2.55
2017-12-08T22:12:58.900Z,2.75
2017-12-08T22:15:33.908Z,2.50
2017-12-08T22:18:08.473Z,2.37
2017-12-08T22:20:43.724Z,3.00
2017-12-08T22:23:18.190Z,1.98
2017-12-08T22:25:52.644Z,2.17
2017-12-08T22:28:27.943Z,2.83
2017-12-08T22:31:03.123Z,4.93
2017-12-08T22:33:37.528Z,2.45
2017-12-08T22:36:11.974Z,3.28
2017-12-08T22:38:46.434Z,1.50
2017-12-08T22:41:21.651Z,2.28
2017-12-08T22:43:56.364Z,4.35
2017-12-08T22:46:31.857Z,3.15
2017-12-08T22:49:06.228Z,6.10
2017-12-08T22:51:40.800Z,5.53
2017-12-08T22:54:15.989Z,3.53
2017-12-08T22:56:50.335Z,3.97
2017-12-08T22:59:25.534Z,6.60
2017-12-08T23:02:00.243Z,2.55
2017-12-08T23:04:34.541Z,4.18
2017-12-08T23:07:08.904Z,3.83
2017-12-08T23:09:43.501Z,6.00
2017-12-08T23:12:17.974Z,4.85
2017-12-08T23:14:52.430Z,2.78
2017-12-08T23:17:26.756Z,2.15
2017-12-08T23:20:01.248Z,3.97
2017-12-08T23:22:35.651Z,4.90
2017-12-08T23:25:09.966Z,3.37
2017-12-08T23:27:44.491Z,2.72
2017-12-08T23:30:18.977Z,3.60
2017-12-08T23:32:53.912Z,2.83
2017-12-08T23:35:29.163Z,2.08
2017-12-08T23:38:03.665Z,2.55
2017-12-08T23:40:37.992Z,2.95
2017-12-08T23:43:12.382Z,6.50
2017-12-08T23:45:47.615Z,3.10
2017-12-08T23:48:22.063Z,1.85
2017-12-08T23:50:56.393Z,4.45
2017-12-08T23:53:31.661Z,2.47
2017-12-08T23:56:06.026Z,3.40
2017-12-08T23:58:40.411Z,2.15
